Time;durP1;ratioP1;P1;durP2;ratioP2;P2;SDS_P1;SDS_P2;PMS_P1;PMS_P2;Temp;Humidity;BMP_temperature;BMP_pressure;BME280_temperature;BME280_humidity;BME280_pressure;Samples;Min_cycle;Max_cycle;Signal;HPM_P1;HPM_P2
2022/12/08 00:00:12;;;;;;;8.80;7.90;;;5.00;99.90;;;;;;5073365;28;20174;-70
2022/12/08 00:02:37;;;;;;;9.10;8.20;;;5.00;99.90;;;;;;5073785;28;20170;-70
2022/12/08 00:10:31;;;;;;;10.33;7.77;;;5.20;99.90;;;;;;5074204;28;20510;-70
2022/12/08 00:12:57;;;;;;;9.27;8.23;;;5.20;99.90;;;;;;5073797;28;20408;-70
2022/12/08 00:15:22;;;;;;;9.77;8.47;;;5.10;99.90;;;;;;5074930;28;20178;-71
2022/12/08 00:17:48;;;;;;;10.20;8.77;;;5.10;99.90;;;;;;5075102;28;20196;-70
2022/12/08 00:20:13;;;;;;;13.37;9.53;;;5.10;99.90;;;;;;5072439;28;20284;-70
2022/12/08 00:22:39;;;;;;;9.50;8.60;;;5.10;99.90;;;;;;5073245;28;20192;-70
2022/12/08 00:25:05;;;;;;;8.40;7.50;;;5.10;99.90;;;;;;5073802;28;20194;-70
2022/12/08 00:27:30;;;;;;;9.13;7.23;;;5.10;99.90;;;;;;5073582;28;20202;-71
2022/12/08 00:29:56;;;;;;;8.70;7.43;;;5.00;99.90;;;;;;5074120;28;20422;-71
2022/12/08 00:32:22;;;;;;;12.67;7.90;;;4.90;99.90;;;;;;5075129;28;20241;-70
2022/12/08 00:34:47;;;;;;;10.87;8.10;;;4.90;99.90;;;;;;5074159;28;20174;-70
2022/12/08 00:37:13;;;;;;;9.90;8.03;;;4.90;99.90;;;;;;5074510;28;20235;-70
2022/12/08 00:39:38;;;;;;;12.00;8.17;;;4.70;99.90;;;;;;5056044;28;20204;-70
2022/12/08 00:42:13;;;;;;;10.17;7.70;;;4.70;99.90;;;;;;5075454;28;20162;-71
2022/12/08 00:44:40;;;;;;;9.57;6.80;;;4.50;99.90;;;;;;5074592;28;20154;-70
2022/12/08 00:47:05;;;;;;;9.03;6.90;;;4.50;99.90;;;;;;5056384;28;20456;-71
2022/12/08 00:49:31;;;;;;;8.10;7.17;;;4.30;99.90;;;;;;5074256;28;20905;-70
2022/12/08 00:51:57;;;;;;;9.00;8.10;;;4.20;99.90;;;;;;5074657;28;20174;-71
2022/12/08 00:54:22;;;;;;;9.50;7.83;;;4.10;99.90;;;;;;5074220;28;20178;-70
2022/12/08 00:56:48;;;;;;;9.73;7.00;;;4.00;99.90;;;;;;5073439;28;20166;-71
2022/12/08 00:59:14;;;;;;;10.73;8.27;;;3.90;99.90;;;;;;5072995;28;20197;-71
2022/12/08 01:01:39;;;;;;;9.67;7.80;;;3.80;99.90;;;;;;5073048;28;20633;-70
2022/12/08 01:04:07;;;;;;;9.37;7.97;;;3.60;99.90;;;;;;5072750;28;20204;-70
2022/12/08 01:06:34;;;;;;;8.47;7.07;;;3.60;99.90;;;;;;5073435;28;20606;-70
2022/12/08 01:09:01;;;;;;;9.97;7.97;;;3.60;99.90;;;;;;5073780;28;20906;-70
2022/12/08 01:11:26;;;;;;;9.97;7.40;;;3.50;99.90;;;;;;5072961;28;20405;-70
2022/12/08 01:13:53;;;;;;;9.10;8.20;;;3.40;99.90;;;;;;5072452;28;20403;-70
2022/12/08 01:16:25;;;;;;;10.03;7.00;;;3.50;99.90;;;;;;5075881;28;20206;-71
2022/12/08 01:18:50;;;;;;;8.80;7.27;;;3.50;99.90;;;;;;5076342;28;20440;-70
2022/12/08 01:21:17;;;;;;;7.40;6.43;;;3.50;99.90;;;;;;5076514;28;20404;-70
2022/12/08 01:23:42;;;;;;;9.60;7.57;;;3.50;99.90;;;;;;5058468;28;20408;-70
2022/12/08 01:26:10;;;;;;;7.00;6.00;;;3.50;99.90;;;;;;5076413;28;21098;-71
2022/12/08 01:28:37;;;;;;;9.97;6.63;;;3.40;99.90;;;;;;5076104;28;20205;-70
2022/12/08 01:31:03;;;;;;;8.20;7.20;;;3.10;99.90;;;;;;5058248;28;20419;-70
2022/12/08 01:33:28;;;;;;;8.77;7.87;;;3.10;99.90;;;;;;5075982;28;20431;-71
2022/12/08 01:35:55;;;;;;;9.10;7.23;;;3.00;99.90;;;;;;5075935;28;20959;-70
2022/12/08 01:38:21;;;;;;;8.20;6.70;;;3.00;99.90;;;;;;5075962;28;20229;-70
2022/12/08 01:40:47;;;;;;;9.80;7.47;;;2.90;99.90;;;;;;5076049;28;20408;-70
2022/12/08 01:43:19;;;;;;;9.30;7.17;;;2.90;99.90;;;;;;5075641;28;20486;-70
2022/12/08 01:45:44;;;;;;;10.40;7.60;;;2.90;99.90;;;;;;5076181;28;20444;-70
2022/12/08 01:48:18;;;;;;;12.13;9.20;;;2.90;99.90;;;;;;5075891;28;20435;-70
2022/12/08 01:50:44;;;;;;;13.60;9.00;;;2.80;99.90;;;;;;5057377;28;20172;-70
2022/12/08 01:53:16;;;;;;;8.60;7.17;;;2.80;99.90;;;;;;5075250;28;20426;-70
2022/12/08 01:55:48;;;;;;;8.57;7.67;;;2.80;99.90;;;;;;5075808;28;20396;-70
2022/12/08 01:58:42;;;;;;;10.10;8.70;;;2.70;99.90;;;;;;5075643;28;20447;-70
2022/12/08 02:01:09;;;;;;;11.63;9.53;;;2.70;99.90;;;;;;5072658;28;20999;-70
2022/12/08 02:03:40;;;;;;;10.93;8.50;;;2.70;99.90;;;;;;5075656;28;20461;-70
2022/12/08 02:06:07;;;;;;;11.83;8.30;;;2.70;99.90;;;;;;5075138;28;20452;-70
2022/12/08 02:08:34;;;;;;;10.33;9.03;;;2.60;99.90;;;;;;5075377;28;20505;-70
2022/12/08 02:11:00;;;;;;;11.07;9.07;;;2.70;99.90;;;;;;5057930;28;20785;-70
2022/12/08 02:13:26;;;;;;;9.20;7.60;;;2.70;99.90;;;;;;5075391;28;20408;-70
2022/12/08 02:16:05;;;;;;;9.80;7.63;;;2.60;99.90;;;;;;5076523;28;20170;-70
2022/12/08 02:19:09;;;;;;;9.70;8.00;;;2.60;99.90;;;;;;5074917;28;20950;-70
2022/12/08 02:22:05;;;;;;;9.50;7.57;;;2.60;99.90;;;;;;5030825;28;20427;-70
2022/12/08 02:24:40;;;;;;;9.37;8.33;;;2.60;99.90;;;;;;5075965;28;20384;-70
2022/12/08 02:27:37;;;;;;;12.57;8.30;;;2.50;99.90;;;;;;5074396;28;20470;-70
2022/12/08 02:30:15;;;;;;;12.27;8.20;;;2.50;99.90;;;;;;5057620;28;20400;-70
2022/12/08 02:33:01;;;;;;;11.37;8.10;;;2.50;99.90;;;;;;5075626;28;20752;-70
2022/12/08 02:35:54;;;;;;;9.87;8.60;;;2.40;99.90;;;;;;5074728;28;20504;-70
2022/12/08 02:38:57;;;;;;;9.73;7.50;;;2.40;99.90;;;;;;5056999;28;20473;-70
2022/12/08 02:41:35;;;;;;;8.47;7.57;;;2.40;99.90;;;;;;5074747;28;20447;-70
2022/12/08 02:44:08;;;;;;;10.90;8.13;;;2.40;99.90;;;;;;5074918;28;20431;-70
2022/12/08 02:46:55;;;;;;;13.13;8.17;;;2.30;99.90;;;;;;5074991;28;20440;-70
2022/12/08 02:49:30;;;;;;;9.47;8.47;;;2.40;99.90;;;;;;5073996;28;20477;-70
2022/12/08 02:52:11;;;;;;;10.67;8.40;;;2.30;99.90;;;;;;5074771;28;20395;-70
2022/12/08 02:54:44;;;;;;;9.87;7.30;;;2.30;99.90;;;;;;5075126;28;20431;-70
2022/12/08 02:57:57;;;;;;;9.03;6.97;;;2.30;99.90;;;;;;5074818;28;20565;-70
2022/12/08 03:00:26;;;;;;;9.33;7.20;;;2.40;99.90;;;;;;5075784;28;20392;-70
2022/12/08 03:03:00;;;;;;;10.93;8.10;;;2.40;99.90;;;;;;5076367;28;20418;-70
2022/12/08 03:05:46;;;;;;;8.30;7.10;;;2.40;99.90;;;;;;5075185;28;20945;-71
2022/12/08 03:08:18;;;;;;;7.33;6.40;;;2.40;99.90;;;;;;5057807;28;20801;-70
2022/12/08 03:10:53;;;;;;;13.10;9.07;;;2.40;99.90;;;;;;5076422;28;20875;-70
2022/12/08 03:13:25;;;;;;;9.67;7.80;;;2.40;99.90;;;;;;5076225;28;20938;-69
2022/12/08 03:15:53;;;;;;;10.40;7.67;;;2.40;99.90;;;;;;5076390;28;20392;-71
2022/12/08 03:18:24;;;;;;;12.30;8.70;;;2.30;99.90;;;;;;5076270;28;20435;-70
2022/12/08 03:20:50;;;;;;;9.77;8.47;;;2.30;99.90;;;;;;5074171;28;20447;-70
2022/12/08 03:23:18;;;;;;;11.80;9.60;;;2.30;99.90;;;;;;5075173;28;20413;-70
2022/12/08 03:25:59;;;;;;;12.30;9.70;;;2.20;99.90;;;;;;5075019;28;20448;-70
2022/12/08 03:28:25;;;;;;;13.27;9.20;;;2.30;99.90;;;;;;5074806;28;20451;-71
2022/12/08 03:30:56;;;;;;;12.20;10.03;;;2.20;99.90;;;;;;5074898;28;20503;-70
2022/12/08 03:33:30;;;;;;;11.00;9.47;;;2.10;99.90;;;;;;5074548;28;20181;-70
2022/12/08 03:35:57;;;;;;;11.43;8.77;;;2.10;99.90;;;;;;5073950;28;20457;-71
2022/12/08 03:38:23;;;;;;;9.83;8.30;;;2.10;99.90;;;;;;5074002;28;20936;-70
2022/12/08 03:41:17;;;;;;;13.33;8.27;;;2.10;99.90;;;;;;5074811;28;20495;-70
2022/12/08 03:43:34;;;;;;;12.57;8.97;;;2.10;99.90;;;;;;5074221;28;20177;-69
2022/12/08 03:46:00;;;;;;;9.53;7.93;;;2.10;99.90;;;;;;5074345;28;20451;-70
2022/12/08 03:48:25;;;;;;;12.60;9.00;;;2.00;99.90;;;;;;5073591;28;20576;-70
2022/12/08 03:50:51;;;;;;;11.47;7.60;;;2.00;99.90;;;;;;5072944;28;20199;-70
2022/12/08 03:53:16;;;;;;;10.80;8.97;;;2.00;99.90;;;;;;5074365;28;20252;-70
2022/12/08 03:55:42;;;;;;;11.27;7.90;;;1.90;99.90;;;;;;5074305;28;20543;-70
2022/12/08 03:58:07;;;;;;;9.90;8.00;;;2.00;99.90;;;;;;5074321;28;20563;-70
2022/12/08 04:00:33;;;;;;;10.03;8.00;;;2.10;99.90;;;;;;5074650;28;20577;-70
2022/12/08 04:02:59;;;;;;;9.17;7.30;;;2.20;99.90;;;;;;5074950;28;20173;-70
2022/12/08 04:05:24;;;;;;;8.87;7.10;;;2.20;99.90;;;;;;5074275;28;20193;-70
2022/12/08 04:07:50;;;;;;;11.80;8.83;;;2.10;99.90;;;;;;5074867;28;20190;-70
2022/12/08 04:10:15;;;;;;;10.93;8.13;;;2.10;99.90;;;;;;5075703;28;20176;-70
2022/12/08 04:12:41;;;;;;;12.30;8.60;;;2.00;99.90;;;;;;5074199;28;20169;-70
2022/12/08 04:15:07;;;;;;;9.80;7.57;;;2.00;99.90;;;;;;5073425;28;20170;-70
2022/12/08 04:17:32;;;;;;;11.80;9.07;;;2.00;99.90;;;;;;5055319;28;20201;-70
2022/12/08 04:19:58;;;;;;;10.53;8.73;;;1.90;99.90;;;;;;5072228;28;20533;-70
2022/12/08 04:22:23;;;;;;;10.50;8.90;;;1.80;99.90;;;;;;5073484;28;20197;-70
2022/12/08 04:24:49;;;;;;;9.27;7.57;;;1.80;99.90;;;;;;5073682;28;20177;-70
2022/12/08 04:27:15;;;;;;;12.17;7.80;;;1.80;99.90;;;;;;5074022;28;20205;-71
2022/12/08 04:29:40;;;;;;;11.97;8.13;;;1.80;99.90;;;;;;5073336;28;20166;-69
2022/12/08 04:32:06;;;;;;;10.80;8.03;;;1.80;99.90;;;;;;5073158;28;20235;-71
2022/12/08 04:34:32;;;;;;;10.67;8.73;;;1.90;99.90;;;;;;5072825;28;20179;-70
2022/12/08 04:36:58;;;;;;;10.77;8.33;;;1.90;99.90;;;;;;5073133;28;20166;-70
2022/12/08 04:39:23;;;;;;;9.07;7.47;;;1.90;99.90;;;;;;5073087;28;20404;-70
2022/12/08 04:41:49;;;;;;;9.43;8.47;;;1.90;99.90;;;;;;5073472;28;20624;-70
2022/12/08 04:44:14;;;;;;;11.23;8.60;;;1.90;99.90;;;;;;5073316;28;20174;-70
2022/12/08 04:46:40;;;;;;;8.00;7.13;;;1.90;99.90;;;;;;5073385;28;20194;-70
2022/12/08 04:49:05;;;;;;;10.13;7.37;;;2.00;99.90;;;;;;5072791;28;20236;-70
2022/12/08 04:51:31;;;;;;;8.77;7.03;;;2.10;99.90;;;;;;5075866;28;20170;-70
2022/12/08 04:53:56;;;;;;;10.10;9.07;;;2.10;99.90;;;;;;5077430;28;20178;-70
2022/12/08 04:56:22;;;;;;;13.70;8.60;;;2.00;99.90;;;;;;5076893;28;20538;-70
2022/12/08 04:58:48;;;;;;;10.57;8.10;;;2.00;99.90;;;;;;5076852;28;20512;-70
2022/12/08 05:01:14;;;;;;;8.80;7.90;;;1.90;99.90;;;;;;5058924;28;20658;-70
2022/12/08 05:03:39;;;;;;;10.97;8.10;;;1.80;99.90;;;;;;5076712;28;20178;-71
2022/12/08 05:06:06;;;;;;;12.10;7.67;;;1.80;99.90;;;;;;5076228;28;20451;-70
2022/12/08 05:08:32;;;;;;;9.23;7.67;;;1.80;99.90;;;;;;5076339;28;20197;-70
2022/12/08 05:11:05;;;;;;;9.90;7.57;;;1.80;99.90;;;;;;5076470;28;20408;-70
2022/12/08 05:13:31;;;;;;;9.03;6.93;;;1.80;99.90;;;;;;5076885;28;20491;-70
2022/12/08 05:16:11;;;;;;;10.30;8.73;;;1.80;99.90;;;;;;5076069;28;20475;-70
2022/12/08 05:18:37;;;;;;;13.80;9.17;;;1.80;99.90;;;;;;5056302;28;20190;-70
2022/12/08 05:21:04;;;;;;;10.73;8.70;;;1.80;99.90;;;;;;5074510;28;20431;-70
2022/12/08 05:23:30;;;;;;;12.97;9.30;;;1.80;99.90;;;;;;5076325;28;20412;-70
2022/12/08 05:25:55;;;;;;;11.47;8.67;;;1.70;99.90;;;;;;5076108;28;20454;-70
2022/12/08 05:28:21;;;;;;;10.47;8.30;;;1.80;99.90;;;;;;5058037;28;20209;-70
2022/12/08 05:30:47;;;;;;;8.43;7.50;;;1.80;99.90;;;;;;5076131;28;20616;-69
2022/12/08 05:33:12;;;;;;;9.53;7.60;;;1.80;99.90;;;;;;5076190;28;20176;-69
2022/12/08 05:35:38;;;;;;;8.90;7.40;;;1.70;99.90;;;;;;5075623;28;20239;-70
2022/12/08 05:38:04;;;;;;;8.83;7.33;;;1.70;99.90;;;;;;5076314;28;20190;-69
2022/12/08 05:40:30;;;;;;;11.20;9.00;;;1.80;99.90;;;;;;5076188;28;20174;-69
2022/12/08 05:42:55;;;;;;;10.63;7.80;;;1.80;99.90;;;;;;5057874;28;20511;-69
2022/12/08 05:45:21;;;;;;;10.93;8.63;;;1.80;99.90;;;;;;5075771;28;20212;-69
2022/12/08 05:47:47;;;;;;;9.23;7.70;;;1.70;99.90;;;;;;5075222;28;20197;-69
2022/12/08 05:50:12;;;;;;;9.40;7.17;;;1.70;99.90;;;;;;5075328;28;20679;-70
2022/12/08 05:52:38;;;;;;;8.80;7.10;;;1.70;99.90;;;;;;5075708;28;20158;-69
2022/12/08 05:55:04;;;;;;;8.37;6.30;;;1.80;99.90;;;;;;5075803;28;20559;-69
2022/12/08 05:57:29;;;;;;;8.40;7.17;;;1.80;99.90;;;;;;5075767;28;20189;-69
2022/12/08 05:59:55;;;;;;;9.60;7.50;;;1.80;99.90;;;;;;5057845;28;20436;-70
2022/12/08 06:02:21;;;;;;;11.03;8.20;;;1.80;99.90;;;;;;5056259;28;20257;-69
2022/12/08 06:04:47;;;;;;;10.57;7.50;;;1.90;99.90;;;;;;5066442;28;20546;-73
2022/12/08 06:07:12;;;;;;;9.60;7.40;;;1.90;99.90;;;;;;5048120;28;20203;-71
2022/12/08 06:09:38;;;;;;;9.17;6.97;;;1.90;99.90;;;;;;5066610;28;20181;-71
2022/12/08 06:12:03;;;;;;;8.27;6.67;;;1.90;99.90;;;;;;5070007;28;20250;-70
2022/12/08 06:14:29;;;;;;;9.00;7.50;;;1.80;99.90;;;;;;5075296;28;20166;-70
2022/12/08 06:16:54;;;;;;;9.53;6.93;;;1.80;99.90;;;;;;5075666;28;20169;-71
2022/12/08 06:19:20;;;;;;;9.43;6.67;;;1.60;99.90;;;;;;5074442;28;20178;-71
2022/12/08 06:21:45;;;;;;;7.83;6.60;;;1.60;99.90;;;;;;5075011;28;20178;-71
2022/12/08 06:24:11;;;;;;;9.90;7.57;;;1.60;99.90;;;;;;5075060;28;20250;-71
2022/12/08 06:26:39;;;;;;;8.77;7.07;;;1.60;99.90;;;;;;5074929;28;20194;-71
2022/12/08 06:29:04;;;;;;;10.27;7.30;;;1.60;99.90;;;;;;5057122;28;20678;-70
2022/12/08 06:31:30;;;;;;;7.57;6.00;;;1.60;99.90;;;;;;5075591;28;20397;-70
2022/12/08 06:33:55;;;;;;;9.80;6.30;;;1.70;99.90;;;;;;5074794;28;20162;-70
2022/12/08 06:36:24;;;;;;;6.63;5.43;;;1.60;99.90;;;;;;5074677;28;20188;-71
2022/12/08 06:38:50;;;;;;;8.07;6.00;;;1.60;99.90;;;;;;5074579;28;20186;-71
2022/12/08 06:41:16;;;;;;;8.67;6.90;;;1.60;99.90;;;;;;5056822;28;20838;-71
2022/12/08 06:43:42;;;;;;;8.50;6.50;;;1.70;99.90;;;;;;5056606;28;20177;-70
2022/12/08 06:46:10;;;;;;;7.40;6.27;;;1.60;99.90;;;;;;5075271;28;20965;-69
2022/12/08 06:48:36;;;;;;;9.67;7.13;;;1.60;99.90;;;;;;5074474;28;20515;-69
2022/12/08 06:51:06;;;;;;;8.20;6.40;;;1.60;99.90;;;;;;5074115;28;20446;-70
2022/12/08 06:53:32;;;;;;;10.63;7.27;;;1.50;99.90;;;;;;5074337;28;20162;-71
2022/12/08 06:55:57;;;;;;;8.67;7.00;;;1.50;99.90;;;;;;5074619;28;20416;-70
2022/12/08 06:58:23;;;;;;;7.47;6.40;;;1.60;99.90;;;;;;5073550;28;20178;-70
2022/12/08 07:00:49;;;;;;;7.87;6.00;;;1.70;99.90;;;;;;5074479;28;20231;-70
2022/12/08 07:03:14;;;;;;;7.30;6.13;;;1.70;99.90;;;;;;5074614;28;20536;-70
2022/12/08 07:05:40;;;;;;;8.87;6.60;;;1.60;99.90;;;;;;5073792;28;20189;-70
2022/12/08 07:08:07;;;;;;;9.10;7.47;;;1.70;99.90;;;;;;5074571;28;20192;-71
2022/12/08 07:10:33;;;;;;;6.53;5.80;;;1.70;99.90;;;;;;5073381;28;20173;-70
2022/12/08 07:12:59;;;;;;;7.87;5.60;;;1.70;99.90;;;;;;5074091;28;20494;-70
2022/12/08 07:15:24;;;;;;;10.40;6.70;;;1.80;99.90;;;;;;5074243;28;20412;-70
2022/12/08 07:17:50;;;;;;;9.23;7.03;;;1.80;99.90;;;;;;5074235;28;20197;-70
2022/12/08 07:20:16;;;;;;;11.23;8.10;;;1.80;99.90;;;;;;5061802;28;20289;-70
2022/12/08 07:22:48;;;;;;;13.60;7.97;;;1.80;99.90;;;;;;5054083;28;20409;-71
2022/12/08 07:25:15;;;;;;;9.97;7.70;;;1.80;99.90;;;;;;5073343;28;20158;-70
2022/12/08 07:27:40;;;;;;;9.13;6.90;;;1.80;99.90;;;;;;5055681;28;20593;-70
2022/12/08 07:30:06;;;;;;;9.07;7.17;;;1.70;99.90;;;;;;5074224;28;20804;-69
2022/12/08 07:32:32;;;;;;;8.80;6.00;;;1.70;99.90;;;;;;5072724;28;20261;-71
2022/12/08 07:34:57;;;;;;;10.00;6.47;;;1.70;99.90;;;;;;5073165;28;20966;-70
2022/12/08 07:37:23;;;;;;;10.00;7.33;;;1.80;99.90;;;;;;5073957;28;20553;-70
2022/12/08 07:39:49;;;;;;;9.73;7.90;;;1.70;99.90;;;;;;5074205;28;20178;-70
2022/12/08 07:42:14;;;;;;;9.97;7.67;;;1.80;99.90;;;;;;5073764;28;20565;-70
2022/12/08 07:44:40;;;;;;;10.40;7.20;;;1.80;99.90;;;;;;5074078;28;20169;-70
2022/12/08 07:47:06;;;;;;;10.60;8.20;;;1.80;99.90;;;;;;5073351;28;20461;-71
2022/12/08 07:49:32;;;;;;;9.33;7.87;;;1.90;99.90;;;;;;5073477;28;20248;-70
2022/12/08 07:51:57;;;;;;;10.93;8.73;;;2.00;99.90;;;;;;5074253;28;20493;-70
2022/12/08 07:54:23;;;;;;;10.50;8.00;;;2.10;99.90;;;;;;5056186;28;20487;-72
2022/12/08 07:56:48;;;;;;;11.30;7.07;;;2.00;99.90;;;;;;5073063;28;20628;-72
2022/12/08 07:59:14;;;;;;;10.13;7.73;;;2.00;99.90;;;;;;5074332;28;20186;-69
2022/12/08 08:01:40;;;;;;;9.70;7.40;;;2.00;99.90;;;;;;5074857;28;20173;-70
2022/12/08 08:04:06;;;;;;;11.43;9.30;;;2.00;99.90;;;;;;5073370;28;20539;-73
2022/12/08 08:06:33;;;;;;;8.17;7.33;;;2.10;99.90;;;;;;5055115;28;20212;-74
2022/12/08 08:08:59;;;;;;;9.73;7.00;;;2.10;99.90;;;;;;5055910;28;20424;-74
2022/12/08 08:11:24;;;;;;;8.63;7.03;;;2.20;99.90;;;;;;5073395;28;20400;-75
2022/12/08 08:13:50;;;;;;;10.90;7.77;;;2.20;99.90;;;;;;5073799;28;20933;-72
2022/12/08 08:16:17;;;;;;;8.27;7.43;;;2.30;99.90;;;;;;5072963;28;20177;-72
2022/12/08 08:18:44;;;;;;;12.73;6.60;;;2.30;99.90;;;;;;5073180;28;20502;-71
2022/12/08 08:21:10;;;;;;;9.03;7.30;;;2.20;99.90;;;;;;5072085;28;20428;-71
2022/12/08 08:23:36;;;;;;;9.07;6.27;;;2.20;99.90;;;;;;5074034;28;20522;-71
2022/12/08 08:26:03;;;;;;;7.60;6.50;;;2.30;99.90;;;;;;5076251;28;20196;-73
2022/12/08 08:28:29;;;;;;;9.60;7.83;;;2.30;99.90;;;;;;5077958;28;20202;-72
2022/12/08 08:30:55;;;;;;;10.23;7.83;;;2.30;99.90;;;;;;5077854;28;20799;-72
2022/12/08 08:33:21;;;;;;;10.60;8.00;;;2.20;99.90;;;;;;5077722;28;20403;-71
2022/12/08 08:35:47;;;;;;;9.97;8.23;;;2.10;99.90;;;;;;5076619;28;20403;-70
2022/12/08 08:38:13;;;;;;;11.67;8.20;;;2.00;99.90;;;;;;5077457;28;20957;-71
2022/12/08 08:40:39;;;;;;;9.50;8.30;;;2.10;99.90;;;;;;5077077;28;20514;-73
2022/12/08 08:43:05;;;;;;;11.13;8.10;;;2.10;99.90;;;;;;5077317;28;20443;-72
2022/12/08 08:45:32;;;;;;;10.13;7.57;;;2.10;99.90;;;;;;5077282;28;20209;-71
2022/12/08 08:47:57;;;;;;;11.20;7.60;;;2.20;99.90;;;;;;5077123;28;20455;-70
2022/12/08 08:50:23;;;;;;;9.73;7.20;;;2.20;99.90;;;;;;5077228;28;20431;-70
2022/12/08 08:52:49;;;;;;;8.17;6.80;;;2.30;99.90;;;;;;5076975;28;20163;-72
2022/12/08 08:55:15;;;;;;;9.83;7.60;;;2.40;99.90;;;;;;5077035;28;20436;-71
2022/12/08 08:57:41;;;;;;;9.80;6.90;;;2.60;99.90;;;;;;5059397;28;20431;-72
2022/12/08 09:00:08;;;;;;;8.83;6.90;;;2.80;99.90;;;;;;5076949;28;20408;-73
2022/12/08 09:02:35;;;;;;;11.33;7.20;;;2.90;99.90;;;;;;5076960;28;20226;-73
2022/12/08 09:05:00;;;;;;;7.60;6.77;;;3.00;99.90;;;;;;5076242;28;20411;-72
2022/12/08 09:07:26;;;;;;;9.67;7.50;;;3.10;99.90;;;;;;5077286;28;20455;-71
2022/12/08 09:09:51;;;;;;;9.90;7.90;;;3.20;99.90;;;;;;5077323;28;20158;-71
2022/12/08 09:12:18;;;;;;;10.63;8.23;;;3.30;99.90;;;;;;5076953;28;20166;-72
2022/12/08 09:14:44;;;;;;;9.27;7.77;;;3.40;99.90;;;;;;5059087;28;20174;-72
2022/12/08 09:17:10;;;;;;;10.93;8.43;;;3.40;99.90;;;;;;5077810;28;20962;-71
2022/12/08 09:19:36;;;;;;;11.83;8.20;;;3.60;99.90;;;;;;5076225;28;20416;-71
2022/12/08 09:22:02;;;;;;;11.17;7.63;;;3.60;99.90;;;;;;5076849;28;20567;-71
2022/12/08 09:24:27;;;;;;;9.43;7.10;;;3.60;99.90;;;;;;5058741;28;20412;-69
2022/12/08 09:26:53;;;;;;;10.47;8.17;;;3.70;99.90;;;;;;5058006;28;20455;-69
2022/12/08 09:29:19;;;;;;;10.83;8.67;;;3.70;99.90;;;;;;5076257;28;20571;-69
2022/12/08 09:31:44;;;;;;;8.27;7.20;;;3.70;99.90;;;;;;5078153;28;20241;-72
2022/12/08 09:34:11;;;;;;;8.73;7.83;;;3.80;99.90;;;;;;5076221;28;20166;-71
2022/12/08 09:36:37;;;;;;;12.50;8.60;;;3.90;99.90;;;;;;5075705;28;20183;-71
2022/12/08 09:39:03;;;;;;;8.60;7.57;;;3.90;99.90;;;;;;5076114;28;20587;-70
2022/12/08 09:41:35;;;;;;;9.90;8.80;;;3.90;99.90;;;;;;5075948;28;20404;-73
2022/12/08 09:44:30;;;;;;;8.80;7.50;;;3.90;99.90;;;;;;5075600;28;20162;-71
2022/12/08 09:46:57;;;;;;;9.47;7.67;;;3.90;99.90;;;;;;5075434;28;20436;-73
2022/12/08 09:49:38;;;;;;;9.77;7.80;;;3.90;99.90;;;;;;5057488;28;20485;-72
2022/12/08 09:52:11;;;;;;;9.70;8.00;;;4.00;99.90;;;;;;5076469;28;20426;-71
2022/12/08 09:54:37;;;;;;;10.67;8.20;;;3.90;99.90;;;;;;5076302;28;20369;-71
2022/12/08 09:57:12;;;;;;;9.73;7.60;;;3.80;99.90;;;;;;5057523;28;20404;-71
2022/12/08 09:59:40;;;;;;;8.40;7.53;;;3.80;99.90;;;;;;5076708;28;20152;-71
2022/12/08 10:02:19;;;;;;;10.00;8.17;;;4.00;99.90;;;;;;5077025;28;20793;-71
2022/12/08 10:04:45;;;;;;;10.40;8.43;;;4.10;99.90;;;;;;5076092;28;20380;-73
2022/12/08 10:07:16;;;;;;;8.67;7.70;;;4.00;99.90;;;;;;5076550;28;20531;-72
2022/12/08 10:10:01;;;;;;;12.40;8.03;;;4.20;99.90;;;;;;5075836;28;20162;-72
2022/12/08 10:12:47;;;;;;;9.77;8.00;;;4.10;99.90;;;;;;5057544;28;20507;-72
2022/12/08 10:15:31;;;;;;;10.10;8.00;;;4.10;99.90;;;;;;5076521;28;20398;-70
2022/12/08 10:18:00;;;;;;;10.03;7.70;;;4.10;99.90;;;;;;5075369;28;20537;-71
2022/12/08 10:20:35;;;;;;;10.33;8.00;;;4.20;99.90;;;;;;5074218;28;20808;-71
2022/12/08 10:23:32;;;;;;;9.07;7.27;;;4.40;99.90;;;;;;5075687;28;20408;-71
2022/12/08 10:26:01;;;;;;;8.57;7.30;;;4.30;99.90;;;;;;5056099;28;20835;-70
2022/12/08 10:28:27;;;;;;;9.33;7.63;;;4.30;99.90;;;;;;5075630;28;20949;-70
2022/12/08 10:30:52;;;;;;;8.97;7.67;;;4.50;99.90;;;;;;5057386;28;20405;-70
2022/12/08 10:33:20;;;;;;;8.50;7.00;;;4.70;99.90;;;;;;5075237;28;20173;-70
2022/12/08 10:35:58;;;;;;;9.30;7.00;;;4.90;99.90;;;;;;5074599;28;20166;-70
2022/12/08 10:38:29;;;;;;;9.23;7.93;;;4.90;99.90;;;;;;5075274;28;20448;-71
2022/12/08 10:41:03;;;;;;;9.20;7.57;;;4.80;99.90;;;;;;5057686;28;20413;-69
2022/12/08 10:43:30;;;;;;;7.20;6.30;;;4.70;99.90;;;;;;5075453;28;20792;-70
2022/12/08 10:46:12;;;;;;;7.93;7.13;;;4.90;99.90;;;;;;5056951;28;20949;-71
2022/12/08 10:48:52;;;;;;;6.93;6.13;;;5.10;99.90;;;;;;5074224;28;20894;-71
2022/12/08 10:51:34;;;;;;;9.13;6.47;;;5.40;99.90;;;;;;5073830;28;20412;-72
2022/12/08 10:54:00;;;;;;;6.33;5.70;;;6.40;99.90;;;;;;5074996;28;20483;-70
2022/12/08 10:56:31;;;;;;;6.67;6.00;;;8.60;99.90;;;;;;5074375;28;20783;-70
2022/12/08 10:59:14;;;;;;;7.67;5.90;;;10.30;99.90;;;;;;5074403;28;20474;-70
2022/12/08 11:01:44;;;;;;;7.00;5.90;;;11.80;99.60;;;;;;5074458;28;20917;-72
2022/12/08 11:04:37;;;;;;;5.03;4.50;;;11.80;98.10;;;;;;5056232;28;20464;-70
2022/12/08 11:07:07;;;;;;;6.23;5.43;;;12.70;96.90;;;;;;5073770;28;20452;-71
2022/12/08 11:09:47;;;;;;;6.20;5.37;;;12.40;95.20;;;;;;5074373;28;20779;-72
2022/12/08 11:12:20;;;;;;;6.47;5.77;;;12.40;95.10;;;;;;5074637;28;20432;-72
2022/12/08 11:14:48;;;;;;;7.33;5.43;;;13.30;94.00;;;;;;5055952;28;20498;-72
2022/12/08 11:17:21;;;;;;;9.40;5.00;;;14.90;92.00;;;;;;5074106;28;20410;-72
2022/12/08 11:20:20;;;;;;;5.70;5.10;;;15.60;89.20;;;;;;5072482;28;20417;-72
2022/12/08 11:22:54;;;;;;;4.83;4.43;;;14.70;86.60;;;;;;5074210;28;20441;-72
2022/12/08 11:25:23;;;;;;;6.03;5.10;;;14.80;87.60;;;;;;5056082;28;20846;-72
2022/12/08 11:27:51;;;;;;;9.33;7.27;;;15.10;84.80;;;;;;5073689;28;20442;-72
2022/12/08 11:30:40;;;;;;;5.97;5.37;;;14.00;85.60;;;;;;5074062;28;20410;-70
2022/12/08 11:33:21;;;;;;;6.10;5.07;;;13.80;87.50;;;;;;5073712;28;20488;-71
2022/12/08 11:36:10;;;;;;;5.10;4.60;;;14.60;85.30;;;;;;5073174;28;20460;-70
2022/12/08 11:38:40;;;;;;;5.17;4.30;;;15.20;82.80;;;;;;5073811;28;20431;-71
2022/12/08 11:41:13;;;;;;;6.70;5.00;;;15.60;82.40;;;;;;5073947;28;20391;-70
2022/12/08 11:44:10;;;;;;;5.70;5.20;;;16.10;80.90;;;;;;5073973;28;20384;-71
2022/12/08 11:46:55;;;;;;;4.90;4.40;;;17.10;76.40;;;;;;5059856;28;20821;-71
2022/12/08 11:49:31;;;;;;;6.20;5.60;;;15.70;79.30;;;;;;5074168;28;20416;-72
2022/12/08 11:52:01;;;;;;;5.47;4.97;;;15.90;78.20;;;;;;5073831;28;20470;-72
2022/12/08 11:54:34;;;;;;;4.90;4.40;;;15.40;78.70;;;;;;5055694;28;20407;-73
2022/12/08 11:57:03;;;;;;;5.30;4.80;;;14.00;79.10;;;;;;5073891;28;20445;-72
2022/12/08 11:59:40;;;;;;;5.60;5.10;;;12.30;83.70;;;;;;5073241;28;20404;-75
2022/12/08 12:02:13;;;;;;;4.67;4.27;;;11.30;89.30;;;;;;5071703;28;20431;-74
2022/12/08 12:04:42;;;;;;;5.97;5.37;;;10.50;90.60;;;;;;5073265;28;20765;-72
2022/12/08 12:07:11;;;;;;;7.90;5.60;;;9.80;92.80;;;;;;5072956;28;20445;-73
2022/12/08 12:09:58;;;;;;;5.30;4.70;;;9.30;94.60;;;;;;5073288;28;20491;-74
2022/12/08 12:12:44;;;;;;;5.20;4.70;;;9.40;94.90;;;;;;5055543;28;20402;-72
2022/12/08 12:15:15;;;;;;;7.57;5.27;;;10.30;93.50;;;;;;5073211;28;20448;-74
2022/12/08 12:18:01;;;;;;;5.90;4.10;;;10.50;93.20;;;;;;5073088;28;20469;-75
2022/12/08 12:20:56;;;;;;;5.57;4.90;;;9.90;94.00;;;;;;5044672;28;20855;-75
2022/12/08 12:23:26;;;;;;;4.40;4.00;;;9.80;95.00;;;;;;5053079;28;20397;-73
2022/12/08 12:25:58;;;;;;;8.13;4.87;;;9.30;95.50;;;;;;5052708;28;21038;-74
2022/12/08 12:28:28;;;;;;;9.17;6.37;;;9.10;96.30;;;;;;5051693;28;20475;-78
2022/12/08 12:31:08;;;;;;;5.30;4.80;;;8.50;96.60;;;;;;5053792;28;20398;-70
2022/12/08 12:33:35;;;;;;;6.33;4.87;;;8.20;97.30;;;;;;5053317;28;20895;-70
2022/12/08 12:36:06;;;;;;;6.97;5.90;;;8.20;97.40;;;;;;5051557;28;20420;-72
2022/12/08 12:41:46;;;;;;;4.47;4.07;;;7.80;98.20;;;;;;5053318;28;20406;-73
2022/12/08 12:44:12;;;;;;;5.27;4.57;;;8.00;98.30;;;;;;5051988;28;20420;-70
2022/12/08 12:46:49;;;;;;;5.13;4.63;;;7.40;98.70;;;;;;5053168;28;20953;-72
2022/12/08 12:49:39;;;;;;;5.17;4.23;;;7.70;99.30;;;;;;5052872;28;20227;-73
2022/12/08 12:52:14;;;;;;;5.30;4.50;;;7.80;98.80;;;;;;5051554;28;20419;-72
2022/12/08 12:54:48;;;;;;;6.40;4.50;;;8.00;98.70;;;;;;5053195;28;20494;-70
2022/12/08 12:57:17;;;;;;;3.80;3.50;;;8.10;98.40;;;;;;5052968;28;20411;-73
2022/12/08 12:59:43;;;;;;;4.67;3.60;;;8.10;98.60;;;;;;5052880;28;20415;-73
2022/12/08 13:02:26;;;;;;;4.90;3.93;;;7.90;98.80;;;;;;5051542;28;20416;-72
2022/12/08 13:05:25;;;;;;;4.93;4.33;;;7.60;98.70;;;;;;5053101;28;20160;-72
2022/12/08 13:08:05;;;;;;;5.30;4.80;;;7.50;99.30;;;;;;5052674;28;20443;-71
2022/12/08 13:10:39;;;;;;;4.30;3.90;;;7.80;99.20;;;;;;5061194;28;20783;-72
2022/12/08 13:13:15;;;;;;;5.27;3.87;;;7.60;99.20;;;;;;5076631;28;20375;-71
2022/12/08 13:16:07;;;;;;;4.80;4.40;;;7.60;99.50;;;;;;5076304;28;20403;-73